Map

Track Data

SID SEASON NUMBER BASIN SUBBASIN NAME ISO_TIME NATURE LAT LON WMO_WIND WMO_PRES WMO_AGENCY TRACK_TYPE DIST2LAND LANDFALL IFLAG USA_AGENCY USA_ATCF_ID USA_LAT USA_LON USA_RECORD USA_STATUS USA_WIND USA_PRES USA_SSHS USA_R34_NE USA_R34_SE USA_R34_SW USA_R34_NW USA_R50_NE USA_R50_SE USA_R50_SW USA_R50_NW USA_R64_NE USA_R64_SE USA_R64_SW USA_R64_NW USA_POCI USA_ROCI USA_RMW USA_EYE TOKYO_LAT TOKYO_LON TOKYO_GRADE TOKYO_WIND TOKYO_PRES TOKYO_R50_DIR TOKYO_R50_LONG TOKYO_R50_SHORT TOKYO_R30_DIR TOKYO_R30_LONG TOKYO_R30_SHORT TOKYO_LAND CMA_LAT CMA_LON CMA_CAT CMA_WIND CMA_PRES HKO_LAT HKO_LON HKO_CAT HKO_WIND HKO_PRES NEWDELHI_LAT NEWDELHI_LON NEWDELHI_GRADE NEWDELHI_WIND NEWDELHI_PRES NEWDELHI_CI NEWDELHI_DP NEWDELHI_POCI REUNION_LAT REUNION_LON REUNION_TYPE REUNION_WIND REUNION_PRES REUNION_TNUM REUNION_CI REUNION_RMW REUNION_R34_NE REUNION_R34_SE REUNION_R34_SW REUNION_R34_NW REUNION_R50_NE REUNION_R50_SE REUNION_R50_SW REUNION_R50_NW REUNION_R64_NE REUNION_R64_SE REUNION_R64_SW REUNION_R64_NW BOM_LAT BOM_LON BOM_TYPE BOM_WIND BOM_PRES BOM_TNUM BOM_CI BOM_RMW BOM_R34_NE BOM_R34_SE BOM_R34_SW BOM_R34_NW BOM_R50_NE BOM_R50_SE BOM_R50_SW BOM_R50_NW BOM_R64_NE BOM_R64_SE BOM_R64_SW BOM_R64_NW BOM_ROCI BOM_POCI BOM_EYE BOM_POS_METHOD BOM_PRES_METHOD NADI_LAT NADI_LON NADI_CAT NADI_WIND NADI_PRES WELLINGTON_LAT WELLINGTON_LON WELLINGTON_WIND WELLINGTON_PRES DS824_LAT DS824_LON DS824_STAGE DS824_WIND DS824_PRES TD9636_LAT TD9636_LON TD9636_STAGE TD9636_WIND TD9636_PRES TD9635_LAT TD9635_LON TD9635_WIND TD9635_PRES TD9635_ROCI NEUMANN_LAT NEUMANN_LON NEUMANN_CLASS NEUMANN_WIND NEUMANN_PRES MLC_LAT MLC_LON MLC_CLASS MLC_WIND MLC_PRES USA_GUST BOM_GUST BOM_GUST_PER REUNION_GUST REUNION_GUST_PER USA_SEAHGT USA_SEARAD_NE USA_SEARAD_SE USA_SEARAD_SW USA_SEARAD_NW STORM_SPEED STORM_DIR
1960227N21144 1960 53 WP MM BESS 1960-08-13 12:00:00 TS 20.7000 143.500 main 1608 1579 ______________ -1 6 306
1960227N21144 1960 53 WP MM BESS 1960-08-13 15:00:00 TS 20.8600 143.260 main 1579 1574 ______________ -1 5 276
1960227N21144 1960 53 WP MM BESS 1960-08-13 18:00:00 TS 20.7500 143.000 main 1575 1562 __O___________ -1 20.0000 143.000 0 19 1004 6 266
1960227N21144 1960 53 WP MM BESS 1960-08-13 21:00:00 TS 20.8234 142.666 main 1562 1535 __P___________ -1 20.2552 142.583 0 19 1004 7 283
1960227N21144 1960 53 WP MM BESS 1960-08-14 00:00:00 TS 20.9000 142.314 main 1535 1513 __O___________ -1 20.5000 142.200 0 19 1004 7 287
1960227N21144 1960 53 WP MM BESS 1960-08-14 03:00:00 TS 21.0137 141.989 main 1513 1480 __P___________ -1 20.7349 141.877 0 19 1004 6 298
1960227N21144 1960 53 WP MM BESS 1960-08-14 06:00:00 TS 21.2000 141.700 main 1480 1448 __O___________ -1 21.0000 141.600 0 19 1004 7 307
1960227N21144 1960 53 WP MM BESS 1960-08-14 09:00:00 TS 21.4275 141.403 main 1448 1409 __P___________ -1 21.3275 141.313 0 19 1004 7 314
1960227N21144 1960 53 WP MM BESS 1960-08-14 12:00:00 TS 21.7000 141.150 main 1409 1371 __O___________ -1 21.7000 141.100 0 19 1004 7 325
1960227N21144 1960 53 WP MM BESS 1960-08-14 15:00:00 TS 22.0212 140.955 main 1371 1336 __P___________ -1 22.1149 140.975 0 21 1002 7 337
1960227N21144 1960 53 WP MM BESS 1960-08-14 18:00:00 TS 22.3500 140.850 main 1325 1301 __O___________ -1 22.5000 141.000 1 23 1000 6 351
1960227N21144 1960 53 WP MM BESS 1960-08-14 21:00:00 TS 22.6437 140.852 main 1304 1273 __P___________ -1 22.7875 141.190 1 23 1000 6 4
1960227N21144 1960 53 WP MM BESS 1960-08-15 00:00:00 TS 22.9000 140.900 main 1273 1252 __O___________ -1 23.0000 141.500 1 23 1000 5 6
1960227N21144 1960 53 WP MM BESS 1960-08-15 03:00:00 TS 23.1337 140.915 main 1252 1232 __P___________ -1 23.1876 141.842 1 26 1000 4 0
1960227N21144 1960 53 WP MM BESS 1960-08-15 06:00:00 TS 23.3000 140.900 main 1232 1218 __O___________ -1 23.3000 142.200 1 29 1000 3 344
1960227N21144 1960 53 WP MM BESS 1960-08-15 09:00:00 TS 23.3798 140.844 main 1218 1218 __P___________ -1 23.3224 142.500 1 29 1000 6 74
1960227N21144 1960 53 WP MM BESS 1960-08-15 12:00:00 TS 23.4625 141.538 1003 tokyo main 1236 1236 _OO___________ -1 24.0000 145.000 2 1003 0 0 0 23.3000 142.800 1 29 1000 14 84
1960227N21144 1960 53 WP MM BESS 1960-08-15 15:00:00 TS 23.5233 142.360 main 1278 1278 _PP___________ -1 23.9800 145.000 2 999 0 0 23.3001 143.158 1 33 997 16 86
1960227N21144 1960 53 WP MM BESS 1960-08-15 18:00:00 TS 23.5875 143.312 996 tokyo main 1302 1302 _OO___________ -1 24.0000 145.000 2 996 0 0 0 23.3000 143.500 2 38 995 19 85
1960227N21144 1960 53 WP MM BESS 1960-08-15 21:00:00 TS 23.6924 144.379 main 1323 1323 _PP___________ -1 24.0850 145.000 2 993 0 0 23.2998 143.758 2 43 992 11 81
1960227N21144 1960 53 WP MM BESS 1960-08-16 00:00:00 TS 23.7500 144.500 990 tokyo main 1316 1316 _OO___________ -1 24.2000 145.000 9 990 0 0 0 23.3000 144.000 3 48 990 3 63
1960227N21144 1960 53 WP MM BESS 1960-08-16 03:00:00 TS 23.8075 144.631 main 1319 1319 _PP___________ -1 24.3150 144.978 9 990 0 0 23.2999 144.285 3 48 990 7 90
1960227N21144 1960 53 WP MM BESS 1960-08-16 06:00:00 TS 23.7545 145.264 990 tokyo main 1344 1344 OOO______O_O__ jtwc_wp WP131960 23.5000 146.500 40 0 24.4000 145.000 9 990 0 0 0 23.3000 144.600 3 48 990 23.5000 146.500 TC 40 23.5000 146.500 40 994 240 9 96
1960227N21144 1960 53 WP MM BESS 1960-08-16 09:00:00 TS 23.7161 145.650 main 1369 1369 PPP______P_P__ WP131960 23.5425 146.460 42 0 24.4150 145.135 9 990 0 0 23.2775 144.950 3 48 990 23.5425 146.460 TC 42 23.5425 146.460 42 993 240 6 94
1960227N21144 1960 53 WP MM BESS 1960-08-16 12:00:00 TS 23.7111 145.911 990 tokyo main 1377 1371 OOO______OOO__ jtwc_wp WP131960 23.6000 146.400 45 0 24.4000 145.300 9 990 0 0 0 23.3000 145.300 3 48 990 23.6000 146.400 TC 45 23.6000 146.400 2 45 23.6000 146.400 45 993 240 3 80
1960227N21144 1960 53 WP MM BESS 1960-08-16 15:00:00 TS 23.7743 146.020 main 1371 1361 PPP______PPP__ WP131960 23.6850 146.307 47 0 24.4224 145.392 9 990 0 0 23.4200 145.645 3 48 990 23.6850 146.307 TC 47 23.7222 146.297 2 46 23.6850 146.307 47 992 240 2 32
1960227N21144 1960 53 WP MM BESS 1960-08-16 18:00:00 TS 23.8755 146.026 990 tokyo main 1361 1351 OOO______OPO__ jtwc_wp WP131960 23.8000 146.200 50 0 24.4000 145.500 9 990 0 0 0 23.6000 145.900 3 48 990 23.8000 146.200 TC 50 23.8455 146.196 2 47 23.8000 146.200 50 992 240 2 1
1960227N21144 1960 53 WP MM BESS 1960-08-16 21:00:00 TS 23.9760 146.022 main 1351 1341 PPP______PPP__ WP131960 23.9500 146.100 50 0 24.2351 145.723 9 990 0 0 23.7999 146.010 3 48 990 23.9500 146.100 TC 50 23.9710 146.096 2 48 23.9500 146.100 50 991 270 2 347
1960227N21144 1960 53 WP MM BESS 1960-08-17 00:00:00 TS 24.0833 145.983 990 tokyo main 1341 1326 OOO______OOO__ jtwc_wp WP131960 24.1000 146.000 50 0 24.1000 145.900 9 990 0 0 0 24.0000 146.000 3 48 990 24.1000 146.000 TC 50 24.1000 146.000 2 50 24.1000 146.000 50 991 300 2 335
1960227N21144 1960 53 WP MM BESS 1960-08-17 03:00:00 TS 24.1763 145.927 main 1326 1312 PPP______PPP__ WP131960 24.1849 145.922 52 0 24.1248 145.940 9 990 0 0 24.1424 145.952 3 53 990 24.1849 145.922 TC 52 24.2356 145.902 2 52 24.1849 145.922 52 990 300 3 323
1960227N21144 1960 53 WP MM BESS 1960-08-17 06:00:00 TS 24.3148 145.796 990 tokyo main 1312 1283 OOO______OPO__ jtwc_wp WP131960 24.3000 145.800 55 0 24.3000 145.800 9 990 0 0 0 24.3000 145.800 3 58 990 24.3000 145.800 TC 55 24.3888 145.776 2 55 24.3000 145.800 55 990 300 5 318
1960227N21144 1960 53 WP MM BESS 1960-08-17 09:00:00 TS 24.5454 145.566 main 1283 1240 PPP______PPP__ WP131960 24.5123 145.610 57 0 24.6353 145.438 9 990 0 0 24.5275 145.545 3 58 989 24.5123 145.610 TC 57 24.5727 145.586 2 57 24.5123 145.610 57 989 270 7 315
1960227N21144 1960 53 WP MM BESS 1960-08-17 12:00:00 TS 24.8333 145.233 990 tokyo main 1236 1190 OOO______OOO__ jtwc_wp WP131960 24.8000 145.300 60 0 25.0000 145.000 9 990 0 0 0 24.8000 145.200 3 58 988 24.8000 145.300 TC 60 24.8000 145.300 2 60 24.8000 145.300 60 989 240 9 311
1960227N21144 1960 53 WP MM BESS 1960-08-17 15:00:00 TS 25.1386 144.821 main 1190 1144 PPP______PPP__ WP131960 25.1426 144.845 60 0 25.2072 144.707 9 987 0 0 25.0848 144.837 3 58 986 25.1426 144.845 TC 60 25.1117 144.845 2 60 25.1426 144.845 60 988 240 10 308
1960227N21144 1960 53 WP MM BESS 1960-08-17 18:00:00 TS 25.4599 144.333 985 tokyo main 1130 1081 OOO______OPO__ jtwc_wp WP131960 25.5000 144.300 60 0 25.4000 144.400 9 985 0 0 0 25.4000 144.400 3 58 985 25.5000 144.300 TC 60 25.4596 144.298 2 60 25.5000 144.300 60 988 240 11 305
1960227N21144 1960 53 WP MM BESS 1960-08-17 21:00:00 TS 25.7867 143.796 main 1081 1034 PPP______PPP__ WP131960 25.8302 143.728 60 0 25.6773 143.995 9 985 0 0 25.7500 143.873 3 58 985 25.8302 143.728 TC 60 25.8024 143.727 2 60 25.8302 143.728 60 988 240 11 303
1960227N21144 1960 53 WP MM BESS 1960-08-18 00:00:00 TS 26.0833 143.267 985 tokyo main 1034 998 OOO______OOO__ jtwc_wp WP131960 26.1000 143.200 60 0 26.0000 143.500 9 985 0 0 0 26.1000 143.300 3 58 985 26.1000 143.200 TC 60 26.1000 143.200 2 60 26.1000 143.200 60 989 240 10 301
1960227N21144 1960 53 WP MM BESS 1960-08-18 03:00:00 TS 26.3131 142.811 main 998 966 PPP______PPP__ WP131960 26.2722 142.812 57 0 26.3728 142.893 9 985 0 0 26.4226 142.720 3 58 985 26.2722 142.812 TC 57 26.2668 142.815 2 58 26.2722 142.812 57 989 210 9 299
1960227N21144 1960 53 WP MM BESS 1960-08-18 06:00:00 TS 26.4985 142.415 985 tokyo main 966 935 OOO______OPO__ jtwc_wp WP131960 26.4000 142.500 55 0 26.7000 142.300 9 985 0 0 0 26.7000 142.200 3 58 985 26.4000 142.500 TC 55 26.3912 142.487 2 57 26.4000 142.500 55 990 180 8 297
1960227N21144 1960 53 WP MM BESS 1960-08-18 09:00:00 TS 26.6595 142.065 main 935 916 PPP______PPP__ WP131960 26.5424 142.192 55 0 26.8798 141.832 9 985 0 0 26.9298 141.790 3 63 985 26.5424 142.192 TC 55 26.5201 142.190 2 56 26.5424 142.192 55 989 180 7 299
1960227N21144 1960 53 WP MM BESS 1960-08-18 12:00:00 TS 26.8167 141.767 985 tokyo main 916 896 OOO______OOO__ jtwc_wp WP131960 26.7000 141.900 55 0 27.0000 141.500 9 985 0 0 0 27.1000 141.500 4 68 985 26.7000 141.900 TC 55 26.7000 141.900 2 55 26.7000 141.900 55 988 180 6 301
1960227N21144 1960 53 WP MM BESS 1960-08-18 15:00:00 TS 26.9587 141.508 main 886 859 PPP______PPP__ WP131960 26.8474 141.607 55 0 27.1123 141.312 9 985 0 0 27.1623 141.342 4 68 984 26.8474 141.607 TC 55 26.9356 141.570 2 55 26.8474 141.607 55 986 180 6 309
1960227N21144 1960 53 WP MM BESS 1960-08-18 18:00:00 TS 27.1892 141.257 985 tokyo main 859 808 OOO______OPO__ jtwc_wp WP131960 27.1000 141.300 55 0 27.3000 141.200 9 985 0 0 0 27.3000 141.200 4 68 983 27.1000 141.300 TC 55 27.2350 141.241 2 55 27.1000 141.300 55 985 180 8 322
1960227N21144 1960 53 WP MM BESS 1960-08-18 21:00:00 TS 27.5819 140.968 main 808 747 PPP______PPP__ WP131960 27.5325 140.957 55 0 27.6173 141.094 9 985 0 0 27.6601 140.922 4 68 983 27.5325 140.957 TC 55 27.6168 140.916 2 55 27.5325 140.957 55 984 180 11 330
1960227N21144 1960 53 WP MM BESS 1960-08-19 00:00:00 TS 28.1167 140.650 985 tokyo main 747 673 OOO______OOO__ jtwc_wp WP131960 28.1000 140.600 55 0 28.1000 140.900 9 985 0 0 0 28.2000 140.600 4 68 983 28.1000 140.600 TC 55 28.1000 140.600 2 55 28.1000 140.600 55 983 180 13 333
1960227N21144 1960 53 WP MM BESS 1960-08-19 03:00:00 TS 28.7530 140.290 main 662 590 PPP______PPP__ WP131960 28.7125 140.235 57 0 28.7704 140.481 9 985 0 0 28.8700 140.300 4 68 983 28.7125 140.235 TC 57 28.7402 140.255 2 56 28.7125 140.235 56 982 180 15 335
1960227N21144 1960 53 WP MM BESS 1960-08-19 06:00:00 TS 29.4617 139.937 985 tokyo main 578 496 OOO______OPO__ jtwc_wp WP131960 29.4000 139.900 60 0 29.5000 140.000 9 985 0 0 0 29.6000 140.000 4 68 983 29.4000 139.900 TC 60 29.4704 139.921 2 57 29.4000 139.900 58 982 180 16 338
1960227N21144 1960 53 WP MM BESS 1960-08-19 09:00:00 TS 30.1967 139.621 main 496 427 PPP______PPP__ WP131960 30.1799 139.613 60 0 30.1450 139.590 9 982 0 0 30.2801 139.670 4 68 981 30.1799 139.613 TC 60 30.2154 139.627 2 58 30.1799 139.613 59 981 150 15 341
1960227N21144 1960 53 WP MM BESS 1960-08-19 12:00:00 TS 30.8667 139.383 980 tokyo main 416 369 OOO______OOO__ jtwc_wp WP131960 30.9000 139.400 60 0 30.7000 139.300 9 980 0 0 0 30.9000 139.400 4 68 980 30.9000 139.400 TC 60 30.9000 139.400 2 60 30.9000 139.400 60 981 120 12 344
1960227N21144 1960 53 WP MM BESS 1960-08-19 15:00:00 TS 31.3577 139.242 main 358 314 PPP______PPP__ WP131960 31.3949 139.262 60 0 31.1148 139.204 9 980 0 0 31.4299 139.247 4 68 980 31.3949 139.262 TC 60 31.4170 139.217 2 61 31.3949 139.262 61 980 120 9 350
1960227N21144 1960 53 WP MM BESS 1960-08-19 18:00:00 TS 31.7777 139.185 980 tokyo main 314 269 OOO______OPO__ jtwc_wp WP131960 31.8000 139.200 60 0 31.5000 139.200 9 980 0 0 0 31.9000 139.200 4 68 980 31.8000 139.200 TC 60 31.8663 139.113 2 62 31.8000 139.200 62 980 120 9 354
1960227N21144 1960 53 WP MM BESS 1960-08-19 21:00:00 TS 32.2316 139.134 main 269 215 PPP______PPP__ WP131960 32.2499 139.148 62 0 31.9773 139.076 9 980 0 0 32.3798 139.183 4 68 980 32.2499 139.148 TC 62 32.2826 139.102 2 63 32.2499 139.148 63 979 150 9 1
1960227N21144 1960 53 WP MM BESS 1960-08-20 00:00:00 TS 32.6833 139.200 980 tokyo main 215 176 OOO______OOO__ jtwc_wp WP131960 32.7000 139.200 65 1 32.5000 139.100 9 980 0 0 0 32.8000 139.300 4 68 980 32.7000 139.200 TC 65 32.7000 139.200 3 65 32.7000 139.200 65 979 180 9 16
1960227N21144 1960 53 WP MM BESS 1960-08-20 03:00:00 TS 33.1171 139.427 main 176 147 PPP______PPP__ WP131960 33.1424 139.390 65 1 33.0427 139.459 9 980 0 0 33.0699 139.576 4 68 980 33.1424 139.390 TC 65 33.1626 139.353 3 65 33.1424 139.390 65 978 180 10 29
1960227N21144 1960 53 WP MM BESS 1960-08-20 06:00:00 TS 33.5722 139.787 980 tokyo main 142 101 OOO______OPO__ jtwc_wp WP131960 33.6000 139.700 65 1 33.6000 140.000 9 980 0 0 0 33.4000 140.000 4 68 980 33.6000 139.700 TC 65 33.6330 139.620 3 65 33.6000 139.700 65 978 180 12 33
1960227N21144 1960 53 WP MM BESS 1960-08-20 09:00:00 TS 34.0780 140.189 main 93 69 PPP______PPP__ WP131960 34.0695 140.034 65 1 34.1423 140.528 9 980 0 0 34.0049 140.505 4 68 980 34.0695 140.034 TC 65 34.1120 140.002 3 65 34.0695 140.034 65 978 180 13 35
1960227N21144 1960 53 WP MM BESS 1960-08-20 12:00:00 TS 34.6333 140.700 980 tokyo main 72 56 OOO______OOO__ jtwc_wp WP131960 34.6000 140.500 65 1 34.7000 141.100 9 980 0 0 0 34.7000 141.100 4 68 980 34.6000 140.500 TC 65 34.6000 140.500 4 65 34.6000 140.500 65 978 180 15 38
1960227N21144 1960 53 WP MM BESS 1960-08-20 15:00:00 TS 35.2747 141.331 main 57 56 PPP______PPP__ WP131960 35.2726 141.146 65 1 35.3373 141.692 9 980 0 0 35.3301 141.750 4 68 979 35.2726 141.146 TC 65 35.1631 141.105 4 65 35.2726 141.146 65 978 180 17 41
1960227N21144 1960 53 WP MM BESS 1960-08-20 18:00:00 TS 35.8703 142.037 980 tokyo main 101 101 OOO______OPO__ jtwc_wp WP131960 35.9000 141.900 65 1 35.9000 142.300 9 980 0 0 0 35.9000 142.400 4 68 978 35.9000 141.900 TC 65 35.7217 141.822 4 65 35.9000 141.900 65 979 180 15 48
1960227N21144 1960 53 WP MM BESS 1960-08-20 21:00:00 TS 36.3103 142.730 main 170 170 PPP______PPP__ WP131960 36.3250 142.666 65 1 36.2440 142.864 9 980 0 0 36.4236 142.913 4 68 979 36.3250 142.666 TC 65 36.2191 142.604 4 65 36.3250 142.666 65 979 180 14 56
1960227N21144 1960 53 WP MM BESS 1960-08-21 00:00:00 TS 36.6167 143.433 980 tokyo main 217 217 OOO______OOO__ jtwc_wp WP131960 36.6000 143.400 65 1 36.5000 143.500 9 980 0 0 0 36.8000 143.500 4 68 980 36.6000 143.400 TC 65 36.6000 143.400 4 65 36.6000 143.400 65 979 180 12 64
1960227N21144 1960 53 WP MM BESS 1960-08-21 03:00:00 TS 36.8498 144.113 main 275 275 PPP______PPP__ WP131960 36.8012 143.986 65 1 36.8521 144.289 9 980 0 0 37.0055 144.355 4 68 980 36.8012 143.986 TC 65 36.8378 144.075 4 65 36.8012 143.986 65 979 180 12 73
1960227N21144 1960 53 WP MM BESS 1960-08-21 06:00:00 TS 36.9590 144.842 980 tokyo main 323 323 OOO______OPO__ jtwc_wp WP131960 36.9000 144.600 65 1 37.1000 145.200 9 980 0 0 0 37.0000 145.300 4 68 980 36.9000 144.600 TC 65 36.9538 144.755 4 65 36.9000 144.600 65 980 180 12 85
1960227N21144 1960 53 WP MM BESS 1960-08-21 09:00:00 TS 36.9573 145.668 main 396 396 PPP______PPP__ WP131960 36.9442 145.375 65 1 37.1558 146.230 9 980 0 0 36.7870 146.174 4 68 980 36.9442 145.375 TC 65 36.9682 145.482 4 65 36.9442 145.375 65 980 210 14 95
1960227N21144 1960 53 WP MM BESS 1960-08-21 12:00:00 TS 36.8500 146.567 980 tokyo main 474 474 OOO______OOO__ jtwc_wp WP131960 36.9000 146.300 65 1 37.0000 147.200 9 980 0 0 0 36.5000 147.000 4 68 980 36.9000 146.300 TC 65 36.9000 146.300 4 65 36.9000 146.300 65 980 240 15 101
1960227N21144 1960 53 WP MM BESS 1960-08-21 15:00:00 TS 36.6785 147.502 main 557 557 PPP______PPP__ WP131960 36.7878 147.378 65 1 36.6126 147.851 9 980 0 0 36.3335 147.726 4 68 980 36.7878 147.378 TC 65 36.7617 147.299 4 65 36.7878 147.378 65 980 240 16 104
1960227N21144 1960 53 WP MM BESS 1960-08-21 18:00:00 TS 36.4582 148.480 980 tokyo main 648 648 OOO______OPO__ jtwc_wp WP131960 36.6000 148.500 65 1 36.2000 148.500 9 980 0 0 0 36.2000 148.500 4 68 980 36.6000 148.500 TC 65 36.5492 148.378 4 65 36.6000 148.500 65 980 240 17 106
1960227N21144 1960 53 WP MM BESS 1960-08-21 21:00:00 TS 36.2321 149.500 main 743 743 PPP______PPP__ WP131960 36.3491 149.530 65 1 35.9982 149.462 9 980 0 0 36.0354 149.478 4 68 980 36.3491 149.530 TC 65 36.3115 149.468 4 65 36.3491 149.530 65 980 270 17 105
1960227N21144 1960 53 WP MM BESS 1960-08-22 00:00:00 TS 36.0333 150.500 980 tokyo main 832 832 OOO______OOO__ jtwc_wp WP131960 36.1000 150.500 65 1 35.9000 150.500 9 980 0 0 0 35.9000 150.500 4 68 980 36.1000 150.500 TC 65 36.1000 150.500 4 65 36.1000 150.500 65 981 300 16 102
1960227N21144 1960 53 WP MM BESS 1960-08-22 03:00:00 TS 35.9016 151.445 main 908 908 PPP______PPP__ WP131960 35.9120 151.437 65 1 35.8347 151.452 9 980 0 0 35.8347 151.452 4 68 980 35.9120 151.437 TC 65 36.0040 151.455 4 65 35.9120 151.437 65 981 300 15 98
1960227N21144 1960 53 WP MM BESS 1960-08-22 06:00:00 TS 35.8236 152.307 980 tokyo main 985 985 OOO______OPO__ jtwc_wp WP131960 35.8000 152.300 65 1 35.8000 152.300 9 980 0 0 0 35.8000 152.300 4 68 980 35.8000 152.300 TC 65 35.9415 152.340 4 65 35.8000 152.300 65 981 300 13 95
1960227N21144 1960 53 WP MM BESS 1960-08-22 09:00:00 TS 35.7918 153.085 main 1048 1048 PPP______PPP__ WP131960 35.7845 153.094 65 1 35.7572 153.047 9 980 0 0 35.7572 153.047 4 68 980 35.7845 153.094 TC 65 35.8831 153.131 4 65 35.7845 153.094 65 981 270 12 93
1960227N21144 1960 53 WP MM BESS 1960-08-22 12:00:00 TS 35.7667 153.733 980 tokyo main 1080 1080 OOO______OOO__ jtwc_wp WP131960 35.8000 153.800 65 1 35.7000 153.600 9 980 0 0 0 35.7000 153.600 4 68 980 35.8000 153.800 TC 65 35.8000 153.800 4 65 35.8000 153.800 65 982 240 10 95
1960227N21144 1960 53 WP MM BESS 1960-08-22 15:00:00 TS 35.7105 154.298 main 1123 1123 PPP______PPP__ WP131960 35.7950 154.482 65 1 35.6295 153.940 9 980 0 0 35.6295 153.940 4 63 980 35.7950 154.482 TC 65 35.6190 154.461 4 65 35.7950 154.482 65 982 270 8 103
1960227N21144 1960 53 WP MM BESS 1960-08-22 18:00:00 TS 35.5862 154.697 980 tokyo main 1154 1154 OOO______OPO__ jtwc_wp WP131960 35.7000 155.000 65 1 35.5000 154.100 9 980 0 0 0 35.5000 154.100 3 58 980 35.7000 155.000 TC 65 35.4170 154.984 4 65 35.7000 155.000 65 982 300 7 125
1960227N21144 1960 53 WP MM BESS 1960-08-22 21:00:00 TS 35.3215 154.978 main 1197 1197 PPP______PPP__ WP131960 35.4068 155.358 65 1 35.2348 154.240 9 980 0 0 35.2423 154.240 3 58 980 35.4068 155.358 TC 65 35.2315 155.314 4 65 35.4068 155.358 65 982 330 6 155
1960227N21144 1960 53 WP MM BESS 1960-08-23 00:00:00 TS 35.0667 155.000 980 tokyo main 1215 1206 OOO______OOO__ jtwc_wp WP131960 35.1000 155.400 65 1 35.0000 154.200 9 980 0 0 0 35.0000 154.200 3 58 980 35.1000 155.400 TC 65 35.1000 155.400 4 65 35.1000 155.400 65 982 360 4 212
1960227N21144 1960 53 WP MM BESS 1960-08-23 03:00:00 TS 34.9516 154.691 main 1206 1184 PPP______PPP__ WP131960 34.9329 155.047 62 0 34.9628 153.903 9 980 0 0 34.9053 153.902 3 58 980 34.9329 155.047 TC 62 35.0433 155.201 4 63 34.9329 155.047 62 982 360 7 259
1960227N21144 1960 53 WP MM BESS 1960-08-23 06:00:00 TS 34.9410 154.211 980 tokyo main 1184 1146 OOO______OPO__ jtwc_wp WP131960 34.9000 154.500 60 0 35.0000 153.500 9 980 0 0 0 34.9000 153.500 3 58 980 34.9000 154.500 TC 60 35.0458 154.768 4 62 34.9000 154.500 60 983 360 7 274
1960227N21144 1960 53 WP MM BESS 1960-08-23 09:00:00 TS 35.0082 153.792 main 1146 1109 PPP______PPP__ WP131960 35.0123 154.050 60 0 34.9848 153.200 9 980 0 0 34.9273 153.200 3 58 980 35.0123 154.050 TC 60 35.1002 154.201 4 61 35.0123 154.050 60 983 360 7 286
1960227N21144 1960 53 WP MM BESS 1960-08-23 12:00:00 TS 35.1333 153.367 980 tokyo main 1109 1072 OOO______OOO__ jtwc_wp WP131960 35.2000 153.600 60 0 35.0000 152.900 9 980 0 0 0 35.0000 152.900 3 58 980 35.2000 153.600 TC 60 35.2000 153.600 2 60 35.2000 153.600 60 983 360 7 290
1960227N21144 1960 53 WP MM BESS 1960-08-23 15:00:00 TS 35.2546 152.965 main 1067 1022 PPP______PPP__ WP131960 35.3422 153.165 60 0 35.0772 152.587 9 980 0 0 35.0847 152.587 3 58 980 35.3422 153.165 TC 60 35.3396 153.119 2 59 35.3422 153.165 60 983 360 7 291
1960227N21144 1960 53 WP MM BESS 1960-08-23 18:00:00 TS 35.4032 152.521 980 tokyo main 1022 972 OOO______OPO__ jtwc_wp WP131960 35.5000 152.700 60 0 35.2000 152.200 9 980 0 0 0 35.2000 152.200 3 58 980 35.5000 152.700 TC 60 35.5194 152.624 2 59 35.5000 152.700 60 984 360 9 293
1960227N21144 1960 53 WP MM BESS 1960-08-23 21:00:00 TS 35.5871 151.992 main 972 921 PPP______PPP__ WP131960 35.7075 152.158 60 0 35.3426 151.680 9 980 0 0 35.3426 151.680 3 58 980 35.7075 152.158 TC 60 35.7145 152.116 2 58 35.7075 152.158 59 984 330 10 292
1960227N21144 1960 53 WP MM BESS 1960-08-24 00:00:00 TS 35.7667 151.433 980 tokyo main 914 869 OOO______OOO__ jtwc_wp WP131960 35.9000 151.600 60 0 35.5000 151.100 9 980 0 0 0 35.5000 151.100 3 58 980 35.9000 151.600 TC 60 35.9000 151.600 2 58 35.9000 151.600 58 984 300 9 289
1960227N21144 1960 53 WP MM BESS 1960-08-24 03:00:00 TS 35.8895 150.909 main 869 825 PPP______PPP__ WP131960 36.0071 151.099 55 0 35.6421 150.557 9 983 0 0 35.6426 150.520 3 53 983 36.0071 151.099 TC 55 36.0307 151.081 2 55 36.0071 151.099 55 984 300 9 286
1960227N21144 1960 53 WP MM BESS 1960-08-24 06:00:00 TS 36.0082 150.393 986 tokyo main 825 775 OOO______OPO__ jtwc_wp WP131960 36.1000 150.600 50 0 35.8000 150.000 9 986 0 0 0 35.8000 150.000 3 48 986 36.1000 150.600 TC 50 36.1493 150.556 2 53 36.1000 150.600 52 984 300 9 288
1960227N21144 1960 53 WP MM BESS 1960-08-24 09:00:00 TS 36.1683 149.874 main 775 731 PPP______PPP__ WP131960 36.2424 150.057 50 0 36.0227 149.378 9 986 0 0 35.9916 149.664 3 48 986 36.2424 150.057 TC 50 36.2682 150.028 2 50 36.2424 150.057 50 984 270 9 291
1960227N21144 1960 53 WP MM BESS 1960-08-24 12:00:00 TS 36.3333 149.350 986 tokyo main 723 677 OOO______OOO__ jtwc_wp WP131960 36.4000 149.500 50 0 36.2000 148.800 9 986 0 0 0 36.2000 149.300 3 48 986 36.4000 149.500 TC 50 36.4000 149.500 2 48 36.4000 149.500 48 985 240 9 288
1960227N21144 1960 53 WP MM BESS 1960-08-24 15:00:00 TS 36.4527 148.805 main 673 627 PPP______PPP__ WP131960 36.5424 148.942 45 0 36.1769 148.383 9 986 0 0 36.4007 148.665 3 48 986 36.5424 148.942 TC 45 36.5117 148.957 2 45 36.5424 148.942 45 985 240 9 287
1960227N21144 1960 53 WP MM BESS 1960-08-24 18:00:00 TS 36.5908 148.269 986 tokyo main 627 578 OOO______OPO__ jtwc_wp WP131960 36.7000 148.400 40 0 36.2000 148.000 9 986 0 0 0 36.6000 148.000 3 48 986 36.7000 148.400 TC 40 36.6449 148.417 2 43 36.7000 148.400 42 985 240 9 292
1960227N21144 1960 53 WP MM BESS 1960-08-24 21:00:00 TS 36.7819 147.769 main 578 529 PPP______PPP__ WP131960 36.8696 147.899 40 0 36.4827 147.501 9 986 0 0 36.7694 147.519 3 48 986 36.8696 147.899 TC 40 36.8306 147.894 2 40 36.8696 147.899 40 985 240 9 300
1960227N21144 1960 53 WP MM BESS 1960-08-25 00:00:00 TS 37.0500 147.283 986 tokyo main 524 470 OOO______OOO__ jtwc_wp WP131960 37.1000 147.400 40 0 36.9000 147.000 9 986 0 0 0 37.0000 147.100 3 48 986 37.1000 147.400 TC 40 37.1000 147.400 2 38 37.1000 147.400 38 986 240 10 307
1960227N21144 1960 53 WP MM BESS 1960-08-25 03:00:00 TS 37.3805 146.769 main 470 409 PPP______PPP__ WP131960 37.3903 146.820 37 0 37.3048 146.577 9 986 0 0 37.3325 146.635 3 48 986 37.3903 146.820 TC 37 37.4746 146.944 2 36 37.3903 146.820 36 986 240 11 314
1960227N21144 1960 53 WP MM BESS 1960-08-25 06:00:00 TS 37.8203 146.292 986 tokyo main 409 349 OOO______OPO__ jtwc_wp WP131960 37.8000 146.300 35 0 37.8000 146.200 9 986 0 0 0 37.8000 146.200 3 48 986 37.8000 146.300 TC 35 37.9356 146.516 2 34 37.8000 146.300 35 986 240 12 326
1960227N21144 1960 53 WP MM BESS 1960-08-25 09:00:00 TS 38.3951 145.887 main 349 305 PPP______PPP__ WP131960 38.3573 145.948 32 -1 38.4126 145.791 9 986 0 0 38.4051 145.784 3 48 986 38.3573 145.948 TC 32 38.4538 146.106 2 32 38.3573 145.948 32 986 240 14 335
1960227N21144 1960 53 WP MM BESS 1960-08-25 12:00:00 TS 39.0667 145.567 986 tokyo main 303 282 OOO______OOO__ jtwc_wp WP131960 39.0000 145.700 30 -1 39.1000 145.500 9 986 0 0 0 39.1000 145.500 3 48 986 39.0000 145.700 TC 30 39.0000 145.700 1 30 39.0000 145.700 30 987 240 14 344
1960227N21144 1960 53 WP MM BESS 1960-08-25 15:00:00 TS 39.7846 145.388 main 283 247 _PP___________ WP131960 -1 39.7846 145.388 9 986 0 0 39.7846 145.388 3 48 986 TC 1 14 358
1960227N21144 1960 53 WP MM BESS 1960-08-25 18:00:00 TS 40.5000 145.500 986 tokyo main 247 206 _OO___________ -1 40.5000 145.500 9 986 0 0 0 40.5000 145.500 3 48 986 1 15 13
1960227N21144 1960 53 WP MM BESS 1960-08-25 21:00:00 TS 41.2049 145.811 main 206 148 _PP___________ -1 41.2049 145.811 9 988 0 0 41.2049 145.811 3 48 988 1 16 22
1960227N21144 1960 53 WP MM BESS 1960-08-26 00:00:00 TS 42.0000 146.300 990 tokyo main 148 104 _OO___________ -1 42.0000 146.300 9 990 0 0 0 42.0000 146.300 3 48 990 19 24
1960227N21144 1960 53 WP MM BESS 1960-08-26 03:00:00 TS 42.9083 146.813 main 106 73 _PP___________ -1 42.9532 146.875 9 995 0 0 42.8858 146.781 3 43 992 22 24
1960227N21144 1960 53 WP MM BESS 1960-08-26 06:00:00 ET 44.0000 147.500 1000 tokyo main 68 0 _OO___________ -1 44.0000 147.500 6 1000 0 0 0 44.0000 147.500 9 38 995 29 26
1960227N21144 1960 53 WP MM BESS 1960-08-26 09:00:00 ET 45.5376 148.605 main 11 11 __P___________ -1 6 0 0 45.5376 148.605 9 38 995 35 30
1960227N21144 1960 53 WP MM BESS 1960-08-26 12:00:00 ET 47.0000 150.000 main 101 101 __O___________ -1 47.0000 150.000 9 38 995 30 40
1960227N21144 1960 53 WP MM BESS 1960-08-26 15:00:00 ET 47.8228 151.441 main 203 203 __P___________ -1 47.8228 151.441 9 33 995 25 53
1960227N21144 1960 53 WP MM BESS 1960-08-26 18:00:00 ET 48.5000 153.000 main 238 79 __O___________ -1 48.5000 153.000 9 29 996 27 52
1960227N21144 1960 53 WP MM BESS 1960-08-26 21:00:00 ET 49.5147 154.722 main 74 0 __P___________ -1 49.5147 154.722 9 26 997 30 49
1960227N21144 1960 53 WP MM BESS 1960-08-27 00:00:00 ET 50.5000 156.500 main 21 21 __O___________ -1 50.5000 156.500 9 23 998 28 52
1960227N21144 1960 53 WP MM BESS 1960-08-27 03:00:00 ET 51.2384 158.215 main 48 43 __P___________ -1 51.2384 158.215 9 23 998 24 58
1960227N21144 1960 53 WP MM BESS 1960-08-27 06:00:00 ET 51.8000 159.800 main 104 104 __O___________ -1 51.8000 159.800 9 23 998 21 62
1960227N21144 1960 53 WP MM BESS 1960-08-27 09:00:00 ET 52.1951 161.163 main 124 124 __P___________ -1 52.1951 161.163 9 23 998 18 64
1960227N21144 1960 53 WP MM BESS 1960-08-27 12:00:00 ET 52.6000 162.500 main 169 169 __O___________ -1 52.6000 162.500 9 23 998 21 61
1960227N21144 1960 53 WP MM BESS 1960-08-27 15:00:00 ET 53.2300 164.181 main 215 211 __P___________ -1 53.2300 164.181 9 23 998 24 57
1960227N21144 1960 53 WP MM BESS 1960-08-27 18:00:00 ET 53.9000 165.800 main 254 254 __O___________ -1 53.9000 165.800 9 23 998 20 52
1960227N21144 1960 53 WP MM BESS 1960-08-27 21:00:00 ET 54.4894 166.930 main 289 287 __P___________ -1 54.4894 166.930 9 23 998 17 49
1960227N21144 1960 53 WP MM BESS 1960-08-28 00:00:00 ET 55.0000 168.000 main 316 316 __O___________ -1 55.0000 168.000 9 23 998 17 57
1960227N21144 1960 53 WP MM BESS 1960-08-28 03:00:00 ET 55.4101 169.440 main 383 383 __P___________ -1 55.4101 169.440 9 23 998 18 68
1960227N21144 1960 53 WP MM BESS 1960-08-28 06:00:00 ET 55.7000 171.000 main 466 458 __O___________ -1 55.7000 171.000 9 23 998 18 75
1960227N21144 1960 53 WP MM BESS 1960-08-28 09:00:00 ET 55.8825 172.520 main 461 461 __P___________ -1 55.8825 172.520 9 23 998 17 80
1960227N21144 1960 53 WP MM BESS 1960-08-28 12:00:00 ET 56.0000 174.000 main 483 __O___________ -1 56.0000 174.000 9 23 998 17 82

Digital Typhoon Data and Search

About IBTrACS Database

This database is a web-friendly format of International Best Track Archive for Climate Stewardship (IBTrACS), a global best track data archive curated by NOAA dating back to 1842.

Updated: 2021-12-06